Time;durP1;ratioP1;P1;durP2;ratioP2;P2;SDS_P1;SDS_P2;PMS_P1;PMS_P2;Temp;Humidity;BMP_temperature;BMP_pressure;BME280_temperature;BME280_humidity;BME280_pressure;Samples;Min_cycle;Max_cycle;Signal;HPM_P1;HPM_P2
2024/02/07 00:00:42;;;;;;;60.00;39.95;;;6.90;83.00;;;;;;5068484;28;20531;-70
2024/02/07 00:03:09;;;;;;;72.40;41.38;;;6.90;82.50;;;;;;5070710;28;20037;-71
2024/02/07 00:05:37;;;;;;;67.95;42.17;;;6.90;82.90;;;;;;5068783;28;20033;-72
2024/02/07 00:08:04;;;;;;;72.05;40.85;;;6.90;83.60;;;;;;5038092;28;20114;-72
2024/02/07 00:10:32;;;;;;;67.45;40.17;;;7.00;82.80;;;;;;5067098;28;20037;-71
2024/02/07 00:12:59;;;;;;;86.60;48.80;;;6.90;83.10;;;;;;5071994;28;20059;-68
2024/02/07 00:15:26;;;;;;;96.32;55.88;;;6.80;83.10;;;;;;5070869;28;20483;-69
2024/02/07 00:17:54;;;;;;;92.18;56.72;;;6.50;84.40;;;;;;5070180;28;20032;-70
2024/02/07 00:20:21;;;;;;;99.70;60.95;;;6.60;84.30;;;;;;5067704;28;20048;-68
2024/02/07 00:22:52;;;;;;;112.47;65.28;;;6.60;83.70;;;;;;5052456;28;20720;-71
2024/02/07 00:25:22;;;;;;;101.43;60.20;;;6.60;83.40;;;;;;5035204;28;20059;-70
2024/02/07 00:28:07;;;;;;;106.75;58.22;;;6.50;83.50;;;;;;5066570;28;20025;-70
2024/02/07 00:30:34;;;;;;;98.25;58.17;;;6.50;84.10;;;;;;5059435;28;20044;-72
2024/02/07 00:33:06;;;;;;;102.05;60.28;;;6.40;84.20;;;;;;5073325;28;20057;-70
2024/02/07 00:35:34;;;;;;;114.20;61.47;;;6.40;84.60;;;;;;5066498;28;20060;-72
2024/02/07 00:38:02;;;;;;;111.65;61.80;;;6.30;84.30;;;;;;5067768;28;20041;-70
2024/02/07 00:40:30;;;;;;;114.32;63.15;;;6.10;85.60;;;;;;5048529;28;20484;-68
2024/02/07 00:43:16;;;;;;;97.88;58.03;;;6.20;85.60;;;;;;5066325;28;20521;-70
2024/02/07 00:45:43;;;;;;;85.45;52.20;;;5.90;87.00;;;;;;5072737;28;20056;-72
2024/02/07 00:48:10;;;;;;;96.72;54.97;;;6.10;86.20;;;;;;5071505;28;20039;-69
2024/02/07 00:50:38;;;;;;;101.05;57.45;;;6.10;85.60;;;;;;5060229;28;20409;-72
2024/02/07 00:53:05;;;;;;;86.90;51.13;;;6.20;85.60;;;;;;5035733;28;20032;-70
2024/02/07 00:55:33;;;;;;;107.05;61.25;;;6.30;84.60;;;;;;5069148;28;20115;-70
2024/02/07 00:58:00;;;;;;;98.85;61.58;;;6.20;85.60;;;;;;5072341;28;20098;-70
2024/02/07 01:00:27;;;;;;;103.00;60.83;;;6.10;85.60;;;;;;5071672;28;20123;-72
2024/02/07 01:02:55;;;;;;;88.38;53.78;;;6.20;86.10;;;;;;5072628;28;20384;-70
2024/02/07 01:05:22;;;;;;;105.03;57.40;;;6.00;86.00;;;;;;5053710;28;20044;-71
2024/02/07 01:07:49;;;;;;;101.10;53.72;;;6.10;85.70;;;;;;5054638;28;20495;-71
2024/02/07 01:10:17;;;;;;;93.20;52.42;;;6.00;86.10;;;;;;5054689;28;20033;-71
2024/02/07 01:12:44;;;;;;;74.68;46.58;;;5.80;87.20;;;;;;5072326;28;20359;-71
2024/02/07 01:15:12;;;;;;;73.13;41.10;;;5.70;87.40;;;;;;5053698;28;20051;-69
2024/02/07 01:17:39;;;;;;;72.45;43.65;;;5.60;89.00;;;;;;5055964;28;20391;-70
2024/02/07 01:20:09;;;;;;;66.70;41.20;;;5.70;88.80;;;;;;5066404;28;20032;-69
2024/02/07 01:22:38;;;;;;;73.63;45.10;;;5.80;87.90;;;;;;5052205;28;20041;-69
2024/02/07 01:25:06;;;;;;;77.78;45.88;;;6.10;87.30;;;;;;5072109;28;20036;-70
2024/02/07 01:27:33;;;;;;;79.82;49.95;;;6.00;87.60;;;;;;5071779;28;20032;-69
2024/02/07 01:30:18;;;;;;;83.13;50.60;;;5.80;87.80;;;;;;5072114;28;20028;-70
2024/02/07 01:32:46;;;;;;;82.50;48.72;;;5.80;87.10;;;;;;5071806;28;20033;-69
2024/02/07 01:35:31;;;;;;;83.15;45.42;;;5.60;88.80;;;;;;5058017;28;20017;-69
2024/02/07 01:38:04;;;;;;;83.60;47.85;;;5.70;88.30;;;;;;5071868;28;20040;-71
2024/02/07 01:40:48;;;;;;;78.47;48.90;;;5.80;88.30;;;;;;5071016;28;20043;-69
2024/02/07 01:43:16;;;;;;;80.43;49.42;;;6.10;87.50;;;;;;5071127;28;20063;-69
2024/02/07 01:45:44;;;;;;;82.95;50.47;;;6.20;86.50;;;;;;5053835;28;20068;-71
2024/02/07 01:48:11;;;;;;;84.68;51.42;;;6.10;86.40;;;;;;5071368;28;20029;-69
2024/02/07 01:51:33;;;;;;;82.43;47.08;;;6.30;86.20;;;;;;5044971;28;20353;-71
2024/02/07 01:54:01;;;;;;;88.03;50.58;;;6.00;86.80;;;;;;5058520;28;20093;-69
2024/02/07 01:56:29;;;;;;;81.05;48.22;;;6.10;86.50;;;;;;5071530;28;20048;-70
2024/02/07 01:58:56;;;;;;;73.15;45.72;;;6.00;86.90;;;;;;5054378;28;20037;-71
2024/02/07 02:01:24;;;;;;;72.43;44.08;;;5.90;87.10;;;;;;5051533;28;20045;-73
2024/02/07 02:03:52;;;;;;;77.70;45.65;;;5.90;87.10;;;;;;5051585;28;20772;-70
2024/02/07 02:06:19;;;;;;;72.10;42.33;;;5.90;87.00;;;;;;5059786;28;20037;-73
2024/02/07 02:08:47;;;;;;;72.78;42.58;;;5.70;87.70;;;;;;5069625;28;20475;-73
2024/02/07 02:11:18;;;;;;;47.35;27.10;;;5.70;88.10;;;;;;5070202;28;20139;-72
2024/02/07 02:13:46;;;;;;;43.13;24.83;;;5.50;86.20;;;;;;5051297;28;20107;-72
2024/02/07 02:16:14;;;;;;;33.83;23.23;;;5.60;85.70;;;;;;5064801;28;20480;-72
2024/02/07 02:18:41;;;;;;;58.45;34.90;;;5.50;86.10;;;;;;5069913;28;20045;-71
2024/02/07 02:21:10;;;;;;;40.70;26.70;;;5.70;86.20;;;;;;5070930;28;20449;-72
2024/02/07 02:23:53;;;;;;;39.38;27.02;;;5.80;85.90;;;;;;5069747;28;20414;-74
2024/02/07 02:26:53;;;;;;;42.53;29.30;;;5.80;84.30;;;;;;5070534;28;20056;-70
2024/02/07 02:29:32;;;;;;;45.83;30.80;;;5.70;85.60;;;;;;5062573;28;20161;-73
2024/02/07 02:32:01;;;;;;;45.47;27.02;;;5.70;85.80;;;;;;5070825;28;20097;-74
2024/02/07 02:34:31;;;;;;;36.30;24.40;;;5.60;86.00;;;;;;5052834;28;20032;-70
2024/02/07 02:36:59;;;;;;;39.20;23.35;;;5.80;84.80;;;;;;5070838;28;20041;-70
2024/02/07 02:39:28;;;;;;;37.08;23.42;;;5.20;85.80;;;;;;5070261;28;20033;-73
2024/02/07 02:41:56;;;;;;;33.90;22.37;;;5.00;87.30;;;;;;5057368;28;20488;-69
2024/02/07 02:44:25;;;;;;;35.13;22.88;;;4.80;87.60;;;;;;5051057;28;20033;-69
2024/02/07 02:46:54;;;;;;;38.53;23.98;;;4.70;88.60;;;;;;5074865;28;20093;-72
2024/02/07 02:49:21;;;;;;;37.72;22.88;;;5.00;88.10;;;;;;5041814;28;20111;-69
2024/02/07 02:51:49;;;;;;;38.45;24.45;;;5.30;87.10;;;;;;5057802;28;20061;-71
2024/02/07 02:54:16;;;;;;;46.08;27.23;;;5.30;86.80;;;;;;5061944;28;20036;-71
2024/02/07 02:56:44;;;;;;;57.60;34.70;;;5.30;86.70;;;;;;5066640;28;20043;-70
2024/02/07 02:59:12;;;;;;;71.60;40.72;;;5.40;86.60;;;;;;5051209;28;20075;-72
2024/02/07 03:01:40;;;;;;;73.22;44.70;;;5.10;87.40;;;;;;5050819;28;20037;-73
2024/02/07 03:04:11;;;;;;;63.95;40.70;;;5.00;88.20;;;;;;5058657;28;20048;-72
2024/02/07 03:06:58;;;;;;;67.75;41.05;;;4.60;90.00;;;;;;5073340;28;20044;-74
2024/02/07 03:09:30;;;;;;;75.70;42.50;;;4.70;90.10;;;;;;5032270;28;20048;-73
2024/02/07 03:11:58;;;;;;;69.82;44.55;;;5.00;89.80;;;;;;5061270;28;20090;-72
2024/02/07 03:14:26;;;;;;;84.68;48.88;;;5.10;89.20;;;;;;5075026;28;20045;-70
2024/02/07 03:16:53;;;;;;;86.05;49.30;;;4.80;88.70;;;;;;5074255;28;20043;-73
2024/02/07 03:19:20;;;;;;;91.65;52.22;;;4.70;89.80;;;;;;5074614;28;20131;-73
2024/02/07 03:21:48;;;;;;;104.15;57.33;;;4.80;89.80;;;;;;5074476;28;20111;-69
2024/02/07 03:24:15;;;;;;;102.03;56.38;;;4.70;89.20;;;;;;5056049;28;20402;-69
2024/02/07 03:26:44;;;;;;;108.10;58.88;;;4.60;90.40;;;;;;5074473;28;20048;-73
2024/02/07 03:29:12;;;;;;;102.10;59.65;;;4.60;90.40;;;;;;5073999;28;20044;-73
2024/02/07 03:31:40;;;;;;;105.80;62.72;;;4.90;90.00;;;;;;5074427;28;20064;-70
2024/02/07 03:34:09;;;;;;;115.88;62.05;;;4.70;89.60;;;;;;5085018;28;20036;-71
2024/02/07 03:36:37;;;;;;;112.45;62.80;;;4.70;90.10;;;;;;5054070;28;20112;-68
2024/02/07 03:39:07;;;;;;;102.05;61.50;;;4.90;90.00;;;;;;5070078;28;20036;-71
2024/02/07 03:41:35;;;;;;;92.85;56.85;;;5.00;89.50;;;;;;5073710;28;20040;-69
2024/02/07 03:44:02;;;;;;;101.78;60.63;;;4.80;89.80;;;;;;5073760;28;20040;-67
2024/02/07 03:46:29;;;;;;;107.65;61.80;;;4.70;90.10;;;;;;5081701;28;20039;-72
2024/02/07 03:48:56;;;;;;;113.10;59.80;;;4.80;90.00;;;;;;5070383;28;20121;-73
2024/02/07 03:51:28;;;;;;;108.78;60.47;;;4.80;89.10;;;;;;5054424;28;20029;-70
2024/02/07 03:53:55;;;;;;;103.35;60.35;;;4.70;89.90;;;;;;5080172;28;20040;-70
2024/02/07 03:56:22;;;;;;;99.68;60.78;;;4.50;90.50;;;;;;5044822;28;20465;-70
2024/02/07 03:58:50;;;;;;;103.18;59.97;;;4.60;90.40;;;;;;5071993;28;20040;-68
2024/02/07 04:01:18;;;;;;;107.45;60.28;;;4.40;90.70;;;;;;5072717;28;20063;-70
2024/02/07 04:03:47;;;;;;;98.05;55.75;;;4.70;90.50;;;;;;5071919;28;20060;-68
2024/02/07 04:06:15;;;;;;;84.03;51.30;;;4.70;90.10;;;;;;5072504;28;20040;-70
2024/02/07 04:08:43;;;;;;;93.78;53.65;;;4.70;90.30;;;;;;5072294;28;20059;-70
2024/02/07 05:17:06;;;;;;;57.28;38.05;;;4.00;91.30;;;;;;5060353;28;20208;-74
2024/02/07 05:19:37;;;;;;;66.85;41.22;;;4.10;91.00;;;;;;5059010;28;20166;-74
2024/02/07 05:22:04;;;;;;;;;;;3.90;91.10;;;;;;5054708;28;20048;-73
2024/02/07 05:24:32;;;;;;;79.85;45.42;;;4.00;91.20;;;;;;5068783;28;19935;-73
2024/02/07 05:27:00;;;;;;;65.82;39.47;;;3.80;91.10;;;;;;5033629;28;20068;-70
2024/02/07 05:29:27;;;;;;;67.30;42.58;;;3.90;91.50;;;;;;5055517;28;20036;-74
2024/02/07 05:31:55;;;;;;;69.68;42.28;;;4.10;91.40;;;;;;5062099;28;20460;-73
2024/02/07 05:34:22;;;;;;;68.30;42.15;;;3.90;91.00;;;;;;5059742;28;20029;-73
2024/02/07 05:36:50;;;;;;;65.07;42.67;;;3.90;91.50;;;;;;5064984;28;20048;-71
2024/02/07 05:39:17;;;;;;;67.88;43.42;;;4.20;91.10;;;;;;5059585;28;20033;-73
2024/02/07 05:41:45;;;;;;;71.50;44.42;;;4.40;90.70;;;;;;5062041;28;20036;-73
2024/02/07 05:44:13;;;;;;;64.07;42.53;;;4.50;90.40;;;;;;5065607;28;20044;-70
2024/02/07 05:46:40;;;;;;;69.05;43.55;;;4.30;90.40;;;;;;5067723;28;20446;-68
2024/02/07 05:49:08;;;;;;;64.53;41.65;;;4.30;90.40;;;;;;5063692;28;20040;-70
2024/02/07 05:51:36;;;;;;;75.45;42.35;;;4.20;90.40;;;;;;5057573;28;20161;-71
2024/02/07 05:54:03;;;;;;;82.15;44.58;;;4.20;90.90;;;;;;5036240;28;20480;-72
2024/02/07 05:56:30;;;;;;;64.47;39.83;;;4.10;91.20;;;;;;5071498;28;20194;-69
2024/02/07 05:58:57;;;;;;;69.20;40.90;;;4.10;90.90;;;;;;5056260;28;20032;-71
2024/02/07 06:01:26;;;;;;;59.58;38.00;;;4.30;90.70;;;;;;5046815;28;20028;-72
2024/02/07 06:03:54;;;;;;;61.50;36.70;;;4.10;90.90;;;;;;5053028;28;20350;-72
2024/02/07 06:06:24;;;;;;;59.38;36.13;;;4.00;90.60;;;;;;5064369;28;20515;-72
2024/02/07 06:08:52;;;;;;;63.95;35.63;;;4.00;91.10;;;;;;5064754;28;20033;-72
2024/02/07 06:11:21;;;;;;;55.88;36.55;;;4.20;91.20;;;;;;5072668;28;20041;-71
2024/02/07 06:13:48;;;;;;;96.05;55.17;;;4.30;90.80;;;;;;5058676;28;20040;-72
2024/02/07 06:16:16;;;;;;;115.63;66.43;;;4.50;90.80;;;;;;5070491;28;20440;-71
2024/02/07 06:18:43;;;;;;;71.18;42.60;;;4.50;90.70;;;;;;5052006;28;20483;-70
2024/02/07 06:21:10;;;;;;;61.47;38.95;;;4.40;90.80;;;;;;5051784;28;20399;-73
2024/02/07 06:23:38;;;;;;;68.55;38.70;;;4.30;90.50;;;;;;5050224;28;20037;-73
2024/02/07 06:26:08;;;;;;;59.60;39.40;;;4.30;91.10;;;;;;5063830;28;20068;-69
2024/02/07 06:28:35;;;;;;;53.63;36.97;;;4.20;91.10;;;;;;5061249;28;20048;-72
2024/02/07 06:31:03;;;;;;;63.78;38.75;;;4.20;91.30;;;;;;5060121;28;20071;-69
2024/02/07 06:33:30;;;;;;;73.05;41.70;;;4.50;91.20;;;;;;5055472;28;20106;-68
2024/02/07 06:35:57;;;;;;;111.30;56.35;;;4.60;91.50;;;;;;5069873;28;20032;-72
2024/02/07 06:38:25;;;;;;;73.35;44.35;;;5.00;91.10;;;;;;5069740;28;20035;-72
2024/02/07 06:40:52;;;;;;;62.15;39.00;;;4.70;90.60;;;;;;5070553;28;20044;-71
2024/02/07 06:43:19;;;;;;;62.22;36.78;;;4.40;90.60;;;;;;5052622;28;20399;-71
2024/02/07 06:45:47;;;;;;;63.30;36.55;;;4.60;91.20;;;;;;5053863;28;20040;-71
2024/02/07 06:48:14;;;;;;;54.20;35.78;;;4.70;90.80;;;;;;5052124;28;20498;-69
2024/02/07 06:50:41;;;;;;;56.45;35.30;;;4.70;90.80;;;;;;5071071;28;20521;-71
2024/02/07 06:53:09;;;;;;;57.90;36.70;;;4.90;90.60;;;;;;5074144;28;20070;-70
2024/02/07 06:55:40;;;;;;;59.53;35.53;;;5.10;90.20;;;;;;5064038;28;20485;-75
2024/02/07 06:58:07;;;;;;;61.38;37.30;;;4.90;90.50;;;;;;5053152;28;20036;-74
2024/02/07 07:00:34;;;;;;;60.05;37.03;;;5.10;90.20;;;;;;5036221;28;20045;-73
2024/02/07 07:03:02;;;;;;;54.00;35.40;;;5.20;89.80;;;;;;5051673;28;20036;-75
2024/02/07 07:05:30;;;;;;;56.72;35.22;;;5.30;89.20;;;;;;5077274;28;20206;-73
2024/02/07 07:07:57;;;;;;;56.92;35.15;;;5.20;88.80;;;;;;5051631;28;20037;-72
2024/02/07 07:10:24;;;;;;;57.63;35.17;;;5.20;88.80;;;;;;5052263;28;20041;-70
2024/02/07 07:12:52;;;;;;;61.50;35.83;;;4.90;89.20;;;;;;5046594;28;20043;-75
2024/02/07 07:15:20;;;;;;;57.15;34.50;;;5.00;90.00;;;;;;5050996;28;20052;-72
2024/02/07 07:18:00;;;;;;;55.70;34.47;;;5.10;89.50;;;;;;5050591;28;20116;-72
2024/02/07 07:20:31;;;;;;;57.58;36.13;;;5.20;89.40;;;;;;5041917;28;20118;-73
2024/02/07 07:22:58;;;;;;;72.78;39.53;;;5.40;88.90;;;;;;5066859;28;20036;-71
2024/02/07 07:25:42;;;;;;;60.75;38.15;;;5.50;87.70;;;;;;5062831;28;20387;-73
2024/02/07 07:28:09;;;;;;;60.53;39.22;;;5.50;87.20;;;;;;5048332;28;20033;-71
2024/02/07 07:30:37;;;;;;;60.70;39.28;;;5.30;88.30;;;;;;5060706;28;20044;-73
2024/02/07 07:33:04;;;;;;;62.28;40.13;;;5.50;88.50;;;;;;5036858;28;20036;-72
2024/02/07 07:35:32;;;;;;;63.17;41.42;;;5.80;87.90;;;;;;5039537;28;20121;-71
2024/02/07 07:38:03;;;;;;;67.57;43.33;;;5.70;87.70;;;;;;5066113;28;20059;-74
2024/02/07 07:40:31;;;;;;;75.55;44.88;;;6.00;87.10;;;;;;5066285;28;20064;-73
2024/02/07 07:42:59;;;;;;;69.60;45.05;;;6.00;86.00;;;;;;5068532;28;20403;-73
2024/02/07 07:45:26;;;;;;;71.40;46.38;;;6.00;87.70;;;;;;5072221;28;20119;-71
2024/02/07 07:47:57;;;;;;;81.93;48.47;;;6.30;86.50;;;;;;5070261;28;20111;-72
2024/02/07 07:50:24;;;;;;;;;;;6.70;85.50;;;;;;5070308;28;20383;-72
2024/02/07 07:52:51;;;;;;;90.28;51.03;;;6.90;84.30;;;;;;5072774;28;19983;-72
2024/02/07 07:55:19;;;;;;;77.00;49.60;;;6.80;83.80;;;;;;5063649;28;20043;-74
2024/02/07 07:57:47;;;;;;;74.72;47.25;;;6.90;84.20;;;;;;5064205;28;20515;-73
2024/02/07 08:00:15;;;;;;;76.13;43.33;;;6.50;84.20;;;;;;5064869;28;20032;-72
2024/02/07 08:02:42;;;;;;;66.28;43.15;;;6.50;85.50;;;;;;5069531;28;20127;-73
2024/02/07 08:05:09;;;;;;;57.35;39.38;;;6.90;85.20;;;;;;5068358;28;20047;-75
2024/02/07 08:07:37;;;;;;;62.78;37.65;;;7.00;84.50;;;;;;5066861;28;20032;-72
2024/02/07 08:10:05;;;;;;;52.45;34.88;;;7.20;83.50;;;;;;5045762;28;20515;-69
2024/02/07 08:12:32;;;;;;;49.25;33.92;;;7.30;82.80;;;;;;5069124;28;20487;-71
2024/02/07 08:14:59;;;;;;;49.28;31.42;;;7.40;82.70;;;;;;5057140;28;20060;-71
2024/02/07 08:17:27;;;;;;;50.22;32.35;;;7.50;82.00;;;;;;5063664;28;20044;-71
2024/02/07 08:19:55;;;;;;;53.72;32.38;;;7.50;81.90;;;;;;5054683;28;20037;-69
2024/02/07 08:22:22;;;;;;;53.40;30.73;;;7.70;81.20;;;;;;5054963;28;20033;-70
2024/02/07 08:24:52;;;;;;;43.67;30.63;;;7.70;80.50;;;;;;5038596;28;20365;-72
2024/02/07 08:27:19;;;;;;;44.08;29.83;;;7.80;80.80;;;;;;5057088;28;20047;-72
2024/02/07 08:29:46;;;;;;;45.28;30.35;;;8.00;80.30;;;;;;5055598;28;20044;-69
2024/02/07 08:32:14;;;;;;;46.38;29.13;;;8.10;79.80;;;;;;5056558;28;20383;-72
2024/02/07 08:34:41;;;;;;;45.50;30.92;;;7.50;80.90;;;;;;5070431;28;20040;-71
2024/02/07 08:37:09;;;;;;;51.15;32.42;;;7.50;81.50;;;;;;5072533;28;20041;-72
2024/02/07 08:39:37;;;;;;;56.63;36.00;;;7.70;81.20;;;;;;5080779;28;20035;-72
2024/02/07 08:42:07;;;;;;;50.67;34.58;;;7.60;81.90;;;;;;5060507;28;20372;-73
2024/02/07 08:44:34;;;;;;;55.60;36.58;;;7.80;81.50;;;;;;5054664;28;20044;-73
2024/02/07 08:47:02;;;;;;;49.75;32.35;;;7.90;80.90;;;;;;5084401;28;20032;-71
2024/02/07 08:49:29;;;;;;;46.08;31.38;;;8.10;80.50;;;;;;5072426;28;20152;-72
2024/02/07 08:51:56;;;;;;;45.10;30.40;;;8.40;79.70;;;;;;5054407;28;20045;-72
2024/02/07 08:54:24;;;;;;;50.28;32.42;;;8.50;80.00;;;;;;5072991;28;20034;-72
2024/02/07 08:56:51;;;;;;;46.08;29.73;;;9.00;78.60;;;;;;5069687;28;20474;-72
2024/02/07 08:59:18;;;;;;;48.28;31.83;;;9.40;77.20;;;;;;5061413;28;20037;-72
2024/02/07 09:01:45;;;;;;;47.50;32.05;;;9.60;76.30;;;;;;5046573;28;20135;-71
2024/02/07 09:04:13;;;;;;;44.80;31.75;;;9.80;76.30;;;;;;5070646;28;20448;-72
2024/02/07 09:06:40;;;;;;;47.85;29.90;;;9.90;75.40;;;;;;5070923;28;20044;-69
2024/02/07 09:09:07;;;;;;;47.85;30.50;;;9.90;75.10;;;;;;5071170;28;20025;-71
2024/02/07 09:11:37;;;;;;;44.20;29.83;;;9.90;75.40;;;;;;5069665;28;20048;-69
2024/02/07 09:14:04;;;;;;;43.53;32.42;;;10.00;74.90;;;;;;5062963;28;20052;-73
2024/02/07 09:16:32;;;;;;;47.70;31.95;;;10.00;74.70;;;;;;5065061;28;20431;-71
2024/02/07 09:18:59;;;;;;;51.13;33.20;;;10.40;75.40;;;;;;5052415;28;20041;-74
2024/02/07 09:21:27;;;;;;;51.40;31.77;;;10.80;73.90;;;;;;5055513;28;20032;-72
2024/02/07 09:23:56;;;;;;;43.90;30.35;;;10.80;72.70;;;;;;5061510;28;20060;-70
2024/02/07 09:26:29;;;;;;;48.28;29.90;;;10.80;72.50;;;;;;5066937;28;20085;-75
2024/02/07 09:28:56;;;;;;;38.50;29.08;;;11.10;72.80;;;;;;5066892;28;20442;-73
2024/02/07 09:31:24;;;;;;;40.55;28.10;;;11.20;71.80;;;;;;5061729;28;20029;-77
2024/02/07 09:33:51;;;;;;;30.75;23.23;;;11.30;72.30;;;;;;5046520;28;20091;-74
2024/02/07 09:36:19;;;;;;;35.72;24.70;;;11.20;71.80;;;;;;5071522;28;20029;-74
2024/02/07 09:38:46;;;;;;;38.25;25.73;;;11.40;71.20;;;;;;5078056;28;20623;-72
2024/02/07 09:41:17;;;;;;;37.33;25.70;;;11.50;71.40;;;;;;5065198;28;20033;-75
2024/02/07 09:43:46;;;;;;;36.90;23.40;;;11.70;71.00;;;;;;5067876;28;20063;-72
2024/02/07 09:46:21;;;;;;;33.88;24.52;;;11.50;71.80;;;;;;5072419;28;20391;-73
2024/02/07 09:48:49;;;;;;;31.85;22.48;;;11.60;72.20;;;;;;5067747;28;20055;-75
2024/02/07 09:51:21;;;;;;;31.90;21.50;;;11.50;71.90;;;;;;5065438;28;20046;-76
2024/02/07 09:53:49;;;;;;;29.05;20.02;;;11.80;72.10;;;;;;5066471;28;20469;-72
2024/02/07 09:56:17;;;;;;;30.08;20.55;;;12.10;71.00;;;;;;5070986;28;20044;-73
2024/02/07 09:58:44;;;;;;;29.92;21.52;;;12.30;70.60;;;;;;5064935;28;20056;-77
2024/02/07 10:01:13;;;;;;;29.38;21.75;;;12.40;70.10;;;;;;5047503;28;20472;-74
2024/02/07 10:03:43;;;;;;;27.65;20.42;;;12.20;70.40;;;;;;5059702;28;20033;-76
2024/02/07 10:06:11;;;;;;;34.78;21.38;;;12.20;70.00;;;;;;5058870;28;20040;-71
2024/02/07 10:08:42;;;;;;;30.75;21.85;;;12.10;70.30;;;;;;5058850;28;20029;-72
2024/02/07 10:11:09;;;;;;;34.53;21.73;;;12.10;70.50;;;;;;5042789;28;20046;-71
2024/02/07 10:13:38;;;;;;;40.78;24.35;;;12.10;70.70;;;;;;5047153;28;20472;-71
2024/02/07 10:16:08;;;;;;;39.38;23.90;;;12.10;70.80;;;;;;5046629;28;20071;-73
2024/02/07 10:18:35;;;;;;;34.10;23.37;;;11.90;71.40;;;;;;5057988;28;20173;-73
2024/02/07 10:21:03;;;;;;;33.20;23.33;;;12.00;71.40;;;;;;5084909;28;20085;-72
2024/02/07 10:23:31;;;;;;;34.42;22.98;;;12.30;71.30;;;;;;5083175;28;20368;-72
2024/02/07 10:25:59;;;;;;;34.17;23.63;;;12.20;71.00;;;;;;5038352;28;20064;-68
2024/02/07 10:28:27;;;;;;;32.80;22.70;;;12.10;71.80;;;;;;5051372;28;20032;-69
2024/02/07 10:30:58;;;;;;;33.65;22.38;;;12.20;70.80;;;;;;5066423;28;20231;-72
2024/02/07 10:33:36;;;;;;;30.13;20.55;;;12.30;70.40;;;;;;5061916;28;20056;-70
2024/02/07 10:36:07;;;;;;;;;;;12.30;70.00;;;;;;5053841;28;20044;-72
2024/02/07 10:38:35;;;;;;;29.73;20.27;;;12.20;70.10;;;;;;5053692;28;19920;-71
2024/02/07 10:41:03;;;;;;;33.60;21.00;;;12.30;70.20;;;;;;5051100;28;20108;-70
2024/02/07 10:43:33;;;;;;;36.63;23.92;;;12.60;71.60;;;;;;5033307;28;20684;-70
2024/02/07 10:46:02;;;;;;;34.92;22.00;;;12.60;70.40;;;;;;5055077;28;20116;-71
2024/02/07 10:48:33;;;;;;;29.30;20.02;;;12.60;70.00;;;;;;5072851;28;20036;-70
2024/02/07 10:51:02;;;;;;;44.28;20.67;;;12.40;70.10;;;;;;5050455;28;20129;-70
2024/02/07 10:53:35;;;;;;;35.83;20.60;;;12.20;69.90;;;;;;5068842;28;20093;-69
2024/02/07 10:56:06;;;;;;;34.40;22.45;;;12.00;70.60;;;;;;5048725;28;20123;-71
2024/02/07 10:58:34;;;;;;;32.38;22.75;;;11.90;70.90;;;;;;5068105;28;20391;-70
2024/02/07 11:01:02;;;;;;;33.33;22.27;;;11.90;71.30;;;;;;5036040;28;20075;-70
2024/02/07 11:03:30;;;;;;;37.58;22.10;;;12.20;70.80;;;;;;5031156;28;20531;-70
2024/02/07 11:05:58;;;;;;;40.75;24.50;;;12.50;70.40;;;;;;5051845;28;20045;-71
2024/02/07 11:08:27;;;;;;;33.83;22.80;;;12.50;69.80;;;;;;5052534;28;20032;-70
2024/02/07 11:10:56;;;;;;;33.25;21.80;;;12.60;69.60;;;;;;5058824;28;20391;-70
2024/02/07 11:13:26;;;;;;;33.85;21.88;;;12.80;69.40;;;;;;5068617;28;20672;-71
2024/02/07 11:15:55;;;;;;;37.70;22.70;;;13.10;68.90;;;;;;5070124;28;20032;-73
2024/02/07 11:18:23;;;;;;;31.55;21.38;;;13.10;68.40;;;;;;5068057;28;20364;-71
2024/02/07 11:20:54;;;;;;;33.60;21.98;;;13.30;68.20;;;;;;5069084;28;20369;-72
2024/02/07 11:23:36;;;;;;;32.25;21.90;;;13.60;67.50;;;;;;5068171;28;20500;-72
2024/02/07 11:26:22;;;;;;;28.90;21.75;;;13.30;67.10;;;;;;5056865;28;20082;-71
2024/02/07 11:28:49;;;;;;;32.00;20.95;;;13.30;67.50;;;;;;5072383;28;20040;-73
2024/02/07 11:31:17;;;;;;;31.10;22.35;;;13.30;67.70;;;;;;5072626;28;20644;-73
2024/02/07 11:33:49;;;;;;;37.20;21.55;;;13.50;67.50;;;;;;5072110;28;20060;-72
2024/02/07 11:36:18;;;;;;;39.38;22.10;;;14.00;68.90;;;;;;5070337;28;20044;-70
2024/02/07 11:38:54;;;;;;;37.13;23.40;;;14.10;69.80;;;;;;5067311;28;20404;-76
2024/02/07 11:41:22;;;;;;;32.55;22.23;;;14.40;68.40;;;;;;5067323;28;20028;-73
2024/02/07 11:44:14;;;;;;;33.50;22.45;;;14.60;68.40;;;;;;5060447;28;20115;-71
2024/02/07 11:46:53;;;;;;;38.28;23.80;;;14.60;67.30;;;;;;5074374;28;20051;-74
2024/02/07 11:49:25;;;;;;;34.53;24.02;;;14.60;68.00;;;;;;5069339;28;20033;-73
2024/02/07 11:51:59;;;;;;;33.28;22.70;;;14.60;67.70;;;;;;5063458;28;20179;-71
2024/02/07 11:54:33;;;;;;;34.50;23.70;;;14.50;66.80;;;;;;5045563;28;20139;-72
2024/02/07 11:57:01;;;;;;;36.58;21.45;;;14.60;66.90;;;;;;5065020;28;20029;-72
2024/02/07 11:59:28;;;;;;;32.03;23.17;;;14.30;66.80;;;;;;5073671;28;20040;-75
2024/02/07 12:01:56;;;;;;;33.15;21.45;;;14.00;67.20;;;;;;5071442;28;20522;-73
2024/02/07 12:04:24;;;;;;;32.80;21.73;;;14.20;68.50;;;;;;5060974;28;20060;-72
2024/02/07 12:06:51;;;;;;;34.47;22.35;;;14.50;67.90;;;;;;5068627;28;20611;-73
2024/02/07 12:09:19;;;;;;;32.33;22.42;;;14.40;67.00;;;;;;5054016;28;20025;-75
2024/02/07 12:11:46;;;;;;;37.30;22.27;;;14.30;66.80;;;;;;5053710;28;20052;-77
2024/02/07 12:14:15;;;;;;;35.00;22.02;;;14.30;67.30;;;;;;5073721;28;20088;-72
2024/02/07 12:16:42;;;;;;;36.08;21.77;;;14.10;67.60;;;;;;5072606;28;20396;-72
2024/02/07 12:19:10;;;;;;;33.65;22.90;;;13.90;68.00;;;;;;5073457;28;20036;-73
2024/02/07 12:21:38;;;;;;;34.92;23.45;;;13.70;68.50;;;;;;5072966;28;20116;-73
2024/02/07 12:24:05;;;;;;;32.33;23.20;;;13.60;69.50;;;;;;5052382;28;20063;-72
2024/02/07 12:26:32;;;;;;;30.45;21.88;;;13.60;70.40;;;;;;5066617;28;20040;-72
2024/02/07 12:29:06;;;;;;;36.67;21.70;;;13.60;69.30;;;;;;5050247;28;20056;-71
2024/02/07 12:31:34;;;;;;;38.42;22.42;;;13.50;69.40;;;;;;5077864;28;20392;-70
2024/02/07 12:34:01;;;;;;;36.30;21.85;;;13.40;69.60;;;;;;5054686;28;20036;-73
2024/02/07 12:36:29;;;;;;;34.00;22.50;;;13.60;69.70;;;;;;5063238;28;20121;-74
2024/02/07 12:38:56;;;;;;;36.92;22.58;;;13.70;69.60;;;;;;5067800;28;20032;-73
2024/02/07 12:41:24;;;;;;;34.25;22.40;;;13.70;68.60;;;;;;5064523;28;20033;-75
2024/02/07 12:43:55;;;;;;;33.42;23.58;;;13.60;69.60;;;;;;5065835;28;20064;-72
2024/02/07 12:46:23;;;;;;;37.00;25.17;;;13.50;69.80;;;;;;5068647;28;20036;-72
2024/02/07 12:48:50;;;;;;;32.85;23.65;;;13.60;69.40;;;;;;5065108;28;20033;-71
2024/02/07 12:51:18;;;;;;;35.05;22.27;;;13.60;69.10;;;;;;5065857;28;20039;-71
2024/02/07 12:53:46;;;;;;;33.97;22.90;;;13.60;69.50;;;;;;5077095;28;20231;-72
2024/02/07 12:56:18;;;;;;;38.40;26.08;;;13.70;69.70;;;;;;5064926;28;20131;-71
2024/02/07 12:58:46;;;;;;;33.35;24.25;;;13.80;69.00;;;;;;5040427;28;20036;-71
2024/02/07 13:01:19;;;;;;;34.70;24.27;;;13.70;68.90;;;;;;5045621;28;20041;-72
2024/02/07 13:03:53;;;;;;;39.10;24.15;;;13.70;69.90;;;;;;5038456;28;20032;-73
2024/02/07 13:06:20;;;;;;;39.00;25.85;;;13.80;70.30;;;;;;5035881;28;20033;-71
2024/02/07 13:08:48;;;;;;;37.53;23.90;;;13.90;69.30;;;;;;5020900;28;20036;-73
2024/02/07 13:11:15;;;;;;;33.50;22.13;;;13.80;68.80;;;;;;5018031;28;20049;-73
2024/02/07 13:13:42;;;;;;;30.73;21.60;;;13.80;69.10;;;;;;5034347;28;20109;-72
2024/02/07 13:16:10;;;;;;;31.02;20.92;;;13.80;69.10;;;;;;5039002;28;20029;-72
2024/02/07 13:18:37;;;;;;;30.48;20.90;;;13.80;68.70;;;;;;5021461;28;20033;-72
2024/02/07 13:21:05;;;;;;;30.90;21.05;;;13.80;68.70;;;;;;5051008;28;20037;-72
2024/02/07 13:23:33;;;;;;;31.00;21.13;;;13.90;68.80;;;;;;5051668;28;20033;-72
2024/02/07 13:26:01;;;;;;;32.17;21.40;;;14.00;68.80;;;;;;5050544;28;20384;-73
2024/02/07 13:28:28;;;;;;;32.65;22.13;;;13.90;68.30;;;;;;5051513;28;20025;-75
2024/02/07 13:30:56;;;;;;;35.95;24.42;;;13.80;68.80;;;;;;5053156;28;20059;-74
2024/02/07 13:33:24;;;;;;;40.72;26.45;;;14.00;70.30;;;;;;5050902;28;20033;-73
2024/02/07 13:35:51;;;;;;;36.50;22.83;;;14.20;70.20;;;;;;5052209;28;20068;-73
2024/02/07 13:38:18;;;;;;;37.60;21.42;;;14.30;68.20;;;;;;5050766;28;20033;-73
2024/02/07 13:41:00;;;;;;;34.42;22.25;;;14.10;68.70;;;;;;5050574;28;20415;-72
2024/02/07 13:43:27;;;;;;;30.85;20.63;;;13.80;69.20;;;;;;5040371;28;20384;-71
2024/02/07 13:45:54;;;;;;;30.92;22.02;;;13.70;69.30;;;;;;5022500;28;20033;-75
2024/02/07 13:48:28;;;;;;;35.33;22.85;;;13.60;69.60;;;;;;5024001;28;20041;-73